sensor_id;sensor_type;location;lat;lon;timestamp;pressure;altitude;pressure_sealevel;temperature
68027;BMP180;54819;48.030;14.710;2022-10-17T00:00:57;98283.40;;;12.70
68027;BMP180;54819;48.030;14.710;2022-10-17T00:03:24;98277.80;;;12.70
68027;BMP180;54819;48.030;14.710;2022-10-17T00:05:51;98281.40;;;12.70
68027;BMP180;54819;48.030;14.710;2022-10-17T00:08:18;98274.20;;;12.70
68027;BMP180;54819;48.030;14.710;2022-10-17T00:10:59;98273.60;;;12.70
68027;BMP180;54819;48.030;14.710;2022-10-17T00:13:27;98280.00;;;12.70
68027;BMP180;54819;48.030;14.710;2022-10-17T00:15:54;98280.20;;;12.70
68027;BMP180;54819;48.030;14.710;2022-10-17T00:18:21;98273.60;;;12.70
68027;BMP180;54819;48.030;14.710;2022-10-17T00:20:49;98272.80;;;12.70
68027;BMP180;54819;48.030;14.710;2022-10-17T00:23:16;98273.00;;;12.70
68027;BMP180;54819;48.030;14.710;2022-10-17T00:25:44;98274.20;;;12.68
68027;BMP180;54819;48.030;14.710;2022-10-17T00:28:13;98270.40;;;12.68
68027;BMP180;54819;48.030;14.710;2022-10-17T00:30:40;98264.00;;;12.62
68027;BMP180;54819;48.030;14.710;2022-10-17T00:33:07;98262.00;;;12.60
68027;BMP180;54819;48.030;14.710;2022-10-17T00:35:34;98270.00;;;12.60
68027;BMP180;54819;48.030;14.710;2022-10-17T00:38:01;98264.80;;;12.50
68027;BMP180;54819;48.030;14.710;2022-10-17T00:40:28;98261.60;;;12.40
68027;BMP180;54819;48.030;14.710;2022-10-17T00:42:54;98263.80;;;12.40
68027;BMP180;54819;48.030;14.710;2022-10-17T00:45:30;98265.20;;;12.32
68027;BMP180;54819;48.030;14.710;2022-10-17T00:48:03;98266.80;;;12.32
68027;BMP180;54819;48.030;14.710;2022-10-17T00:50:31;98262.40;;;12.40
68027;BMP180;54819;48.030;14.710;2022-10-17T00:53:01;98263.80;;;12.40
68027;BMP180;54819;48.030;14.710;2022-10-17T00:55:38;98255.00;;;12.40
68027;BMP180;54819;48.030;14.710;2022-10-17T00:58:07;98256.00;;;12.40
68027;BMP180;54819;48.030;14.710;2022-10-17T01:00:35;98254.60;;;12.46
68027;BMP180;54819;48.030;14.710;2022-10-17T01:03:03;98259.80;;;12.50
68027;BMP180;54819;48.030;14.710;2022-10-17T01:05:30;98258.40;;;12.54
68027;BMP180;54819;48.030;14.710;2022-10-17T01:07:57;98261.80;;;12.60
68027;BMP180;54819;48.030;14.710;2022-10-17T01:10:34;98260.00;;;12.60
68027;BMP180;54819;48.030;14.710;2022-10-17T01:13:17;98260.00;;;12.60
68027;BMP180;54819;48.030;14.710;2022-10-17T01:19:33;98264.00;;;12.70
68027;BMP180;54819;48.030;14.710;2022-10-17T01:22:10;98262.40;;;12.70
68027;BMP180;54819;48.030;14.710;2022-10-17T01:31:15;98257.60;;;12.60
68027;BMP180;54819;48.030;14.710;2022-10-17T01:42:35;98241.40;;;12.50
68027;BMP180;54819;48.030;14.710;2022-10-17T01:45:12;98241.80;;;12.48
68027;BMP180;54819;48.030;14.710;2022-10-17T01:47:45;98243.20;;;12.48
68027;BMP180;54819;48.030;14.710;2022-10-17T01:50:20;98246.20;;;12.50
68027;BMP180;54819;48.030;14.710;2022-10-17T01:53:00;98245.60;;;12.50
68027;BMP180;54819;48.030;14.710;2022-10-17T01:55:34;98250.20;;;12.50
68027;BMP180;54819;48.030;14.710;2022-10-17T01:58:28;98245.80;;;12.50
68027;BMP180;54819;48.030;14.710;2022-10-17T02:01:00;98252.20;;;12.50
68027;BMP180;54819;48.030;14.710;2022-10-17T02:03:31;98250.20;;;12.50
68027;BMP180;54819;48.030;14.710;2022-10-17T02:06:00;98248.00;;;12.50
68027;BMP180;54819;48.030;14.710;2022-10-17T02:08:43;98247.20;;;12.50
68027;BMP180;54819;48.030;14.710;2022-10-17T02:11:16;98249.00;;;12.46
68027;BMP180;54819;48.030;14.710;2022-10-17T02:22:56;98250.40;;;12.40
68027;BMP180;54819;48.030;14.710;2022-10-17T02:25:55;98248.00;;;12.40
68027;BMP180;54819;48.030;14.710;2022-10-17T02:31:35;98248.20;;;12.40
68027;BMP180;54819;48.030;14.710;2022-10-17T02:34:25;98252.00;;;12.32
68027;BMP180;54819;48.030;14.710;2022-10-17T02:36:58;98251.80;;;12.32
68027;BMP180;54819;48.030;14.710;2022-10-17T02:39:28;98249.80;;;12.30
68027;BMP180;54819;48.030;14.710;2022-10-17T02:42:00;98253.40;;;12.30
68027;BMP180;54819;48.030;14.710;2022-10-17T02:44:31;98254.40;;;12.30
68027;BMP180;54819;48.030;14.710;2022-10-17T02:47:24;98255.20;;;12.30
68027;BMP180;54819;48.030;14.710;2022-10-17T02:49:55;98261.40;;;12.30
68027;BMP180;54819;48.030;14.710;2022-10-17T02:52:57;98260.20;;;12.30
68027;BMP180;54819;48.030;14.710;2022-10-17T02:55:32;98267.00;;;12.30
68027;BMP180;54819;48.030;14.710;2022-10-17T02:58:29;98268.80;;;12.30
68027;BMP180;54819;48.030;14.710;2022-10-17T03:00:58;98264.60;;;12.24
68027;BMP180;54819;48.030;14.710;2022-10-17T03:03:28;98275.20;;;12.20
68027;BMP180;54819;48.030;14.710;2022-10-17T03:05:58;98279.60;;;12.18
68027;BMP180;54819;48.030;14.710;2022-10-17T03:08:25;98278.80;;;12.12
68027;BMP180;54819;48.030;14.710;2022-10-17T03:10:54;98283.00;;;12.10
68027;BMP180;54819;48.030;14.710;2022-10-17T03:13:21;98282.80;;;12.10
68027;BMP180;54819;48.030;14.710;2022-10-17T03:15:48;98278.80;;;12.10
68027;BMP180;54819;48.030;14.710;2022-10-17T03:18:15;98285.60;;;12.06
68027;BMP180;54819;48.030;14.710;2022-10-17T03:20:43;98289.40;;;12.00
68027;BMP180;54819;48.030;14.710;2022-10-17T03:23:09;98282.20;;;12.00
68027;BMP180;54819;48.030;14.710;2022-10-17T03:25:36;98289.00;;;12.00
68027;BMP180;54819;48.030;14.710;2022-10-17T03:28:04;98288.20;;;12.00
68027;BMP180;54819;48.030;14.710;2022-10-17T03:30:32;98287.40;;;12.00
68027;BMP180;54819;48.030;14.710;2022-10-17T03:32:59;98291.20;;;11.96
68027;BMP180;54819;48.030;14.710;2022-10-17T03:35:26;98297.00;;;11.90
68027;BMP180;54819;48.030;14.710;2022-10-17T03:37:56;98296.80;;;11.90
68027;BMP180;54819;48.030;14.710;2022-10-17T03:40:24;98294.40;;;11.90
68027;BMP180;54819;48.030;14.710;2022-10-17T03:42:51;98308.80;;;11.80
68027;BMP180;54819;48.030;14.710;2022-10-17T03:45:18;98307.60;;;11.80
68027;BMP180;54819;48.030;14.710;2022-10-17T03:47:45;98303.20;;;11.80
68027;BMP180;54819;48.030;14.710;2022-10-17T03:50:13;98306.00;;;11.70
68027;BMP180;54819;48.030;14.710;2022-10-17T03:52:40;98312.20;;;11.70
68027;BMP180;54819;48.030;14.710;2022-10-17T03:55:07;98309.80;;;11.70
68027;BMP180;54819;48.030;14.710;2022-10-17T03:57:35;98303.20;;;11.62
68027;BMP180;54819;48.030;14.710;2022-10-17T04:00:04;98300.20;;;11.60
68027;BMP180;54819;48.030;14.710;2022-10-17T04:02:40;98307.40;;;11.60
68027;BMP180;54819;48.030;14.710;2022-10-17T04:05:09;98304.60;;;11.50
68027;BMP180;54819;48.030;14.710;2022-10-17T04:07:36;98300.40;;;11.50
68027;BMP180;54819;48.030;14.710;2022-10-17T04:10:04;98307.40;;;11.50
68027;BMP180;54819;48.030;14.710;2022-10-17T04:12:31;98314.40;;;11.50
68027;BMP180;54819;48.030;14.710;2022-10-17T04:14:58;98314.20;;;11.50
68027;BMP180;54819;48.030;14.710;2022-10-17T04:17:25;98317.80;;;11.50
68027;BMP180;54819;48.030;14.710;2022-10-17T04:19:52;98312.40;;;11.50
68027;BMP180;54819;48.030;14.710;2022-10-17T04:22:21;98316.00;;;11.48
68027;BMP180;54819;48.030;14.710;2022-10-17T04:24:48;98319.40;;;11.40
68027;BMP180;54819;48.030;14.710;2022-10-17T04:27:24;98320.40;;;11.40
68027;BMP180;54819;48.030;14.710;2022-10-17T04:29:52;98328.00;;;11.40
68027;BMP180;54819;48.030;14.710;2022-10-17T04:32:22;98327.20;;;11.38
68027;BMP180;54819;48.030;14.710;2022-10-17T04:34:54;98328.00;;;11.30
68027;BMP180;54819;48.030;14.710;2022-10-17T04:37:21;98332.20;;;11.30
68027;BMP180;54819;48.030;14.710;2022-10-17T04:39:49;98328.80;;;11.30
68027;BMP180;54819;48.030;14.710;2022-10-17T04:42:16;98329.20;;;11.30
68027;BMP180;54819;48.030;14.710;2022-10-17T04:44:44;98332.40;;;11.20
68027;BMP180;54819;48.030;14.710;2022-10-17T04:47:11;98330.20;;;11.20
68027;BMP180;54819;48.030;14.710;2022-10-17T04:49:38;98340.60;;;11.20
68027;BMP180;54819;48.030;14.710;2022-10-17T04:52:10;98339.60;;;11.20
68027;BMP180;54819;48.030;14.710;2022-10-17T04:54:44;98342.60;;;11.20
68027;BMP180;54819;48.030;14.710;2022-10-17T04:57:12;98340.80;;;11.20
68027;BMP180;54819;48.030;14.710;2022-10-17T04:59:40;98339.40;;;11.20
68027;BMP180;54819;48.030;14.710;2022-10-17T05:02:25;98337.60;;;11.20
68027;BMP180;54819;48.030;14.710;2022-10-17T05:04:53;98338.80;;;11.20
68027;BMP180;54819;48.030;14.710;2022-10-17T05:07:20;98336.40;;;11.20
68027;BMP180;54819;48.030;14.710;2022-10-17T05:10:09;98338.20;;;11.16
68027;BMP180;54819;48.030;14.710;2022-10-17T05:12:36;98338.80;;;11.12
68027;BMP180;54819;48.030;14.710;2022-10-17T05:15:05;98339.60;;;11.10
68027;BMP180;54819;48.030;14.710;2022-10-17T05:17:32;98339.80;;;11.10
68027;BMP180;54819;48.030;14.710;2022-10-17T05:19:59;98342.80;;;11.10
68027;BMP180;54819;48.030;14.710;2022-10-17T05:22:26;98347.20;;;11.10
68027;BMP180;54819;48.030;14.710;2022-10-17T05:24:54;98350.80;;;11.10
68027;BMP180;54819;48.030;14.710;2022-10-17T05:27:20;98354.00;;;11.10
68027;BMP180;54819;48.030;14.710;2022-10-17T05:29:47;98351.80;;;11.10
68027;BMP180;54819;48.030;14.710;2022-10-17T05:32:22;98354.40;;;11.10
68027;BMP180;54819;48.030;14.710;2022-10-17T05:34:49;98360.00;;;11.10
68027;BMP180;54819;48.030;14.710;2022-10-17T05:37:16;98356.00;;;11.10
68027;BMP180;54819;48.030;14.710;2022-10-17T05:39:46;98362.80;;;11.10
68027;BMP180;54819;48.030;14.710;2022-10-17T05:42:17;98365.60;;;11.10
68027;BMP180;54819;48.030;14.710;2022-10-17T05:44:44;98365.60;;;11.10
68027;BMP180;54819;48.030;14.710;2022-10-17T05:47:12;98370.80;;;11.10
68027;BMP180;54819;48.030;14.710;2022-10-17T05:49:38;98377.60;;;11.10
68027;BMP180;54819;48.030;14.710;2022-10-17T05:52:17;98377.00;;;11.20
68027;BMP180;54819;48.030;14.710;2022-10-17T05:55:02;98382.00;;;11.20
68027;BMP180;54819;48.030;14.710;2022-10-17T05:57:30;98388.00;;;11.20
68027;BMP180;54819;48.030;14.710;2022-10-17T05:59:57;98390.20;;;11.30
68027;BMP180;54819;48.030;14.710;2022-10-17T06:02:25;98397.00;;;11.30
68027;BMP180;54819;48.030;14.710;2022-10-17T06:04:52;98400.20;;;11.30
68027;BMP180;54819;48.030;14.710;2022-10-17T06:07:21;98392.00;;;11.32
68027;BMP180;54819;48.030;14.710;2022-10-17T06:09:48;98390.80;;;11.40
68027;BMP180;54819;48.030;14.710;2022-10-17T06:12:16;98394.00;;;11.40
68027;BMP180;54819;48.030;14.710;2022-10-17T06:14:44;98392.20;;;11.50
68027;BMP180;54819;48.030;14.710;2022-10-17T06:17:12;98397.20;;;11.52
68027;BMP180;54819;48.030;14.710;2022-10-17T06:19:42;98403.20;;;11.60
68027;BMP180;54819;48.030;14.710;2022-10-17T06:22:13;98408.40;;;11.70
68027;BMP180;54819;48.030;14.710;2022-10-17T06:24:40;98413.40;;;11.70
68027;BMP180;54819;48.030;14.710;2022-10-17T06:27:08;98411.20;;;11.80
68027;BMP180;54819;48.030;14.710;2022-10-17T06:29:39;98409.80;;;11.90
68027;BMP180;54819;48.030;14.710;2022-10-17T06:32:06;98409.60;;;12.00
68027;BMP180;54819;48.030;14.710;2022-10-17T06:34:39;98411.00;;;12.10
68027;BMP180;54819;48.030;14.710;2022-10-17T06:37:05;98417.20;;;12.20
68027;BMP180;54819;48.030;14.710;2022-10-17T06:39:34;98416.00;;;12.28
68027;BMP180;54819;48.030;14.710;2022-10-17T06:42:06;98413.40;;;12.40
68027;BMP180;54819;48.030;14.710;2022-10-17T06:44:56;98419.40;;;12.60
68027;BMP180;54819;48.030;14.710;2022-10-17T06:47:39;98416.00;;;12.80
68027;BMP180;54819;48.030;14.710;2022-10-17T06:50:29;98417.80;;;12.80
68027;BMP180;54819;48.030;14.710;2022-10-17T06:53:10;98421.80;;;12.80
68027;BMP180;54819;48.030;14.710;2022-10-17T06:56:07;98424.40;;;12.90
68027;BMP180;54819;48.030;14.710;2022-10-17T06:58:53;98429.20;;;12.98
68027;BMP180;54819;48.030;14.710;2022-10-17T07:01:42;98434.20;;;13.10
68027;BMP180;54819;48.030;14.710;2022-10-17T07:04:13;98435.40;;;13.10
68027;BMP180;54819;48.030;14.710;2022-10-17T07:06:40;98434.20;;;13.18
68027;BMP180;54819;48.030;14.710;2022-10-17T07:09:14;98429.40;;;13.20
68027;BMP180;54819;48.030;14.710;2022-10-17T07:11:41;98431.60;;;13.30
68027;BMP180;54819;48.030;14.710;2022-10-17T07:14:07;98430.20;;;13.40
68027;BMP180;54819;48.030;14.710;2022-10-17T07:16:34;98430.40;;;13.40
68027;BMP180;54819;48.030;14.710;2022-10-17T07:19:07;98434.00;;;13.50
68027;BMP180;54819;48.030;14.710;2022-10-17T07:21:37;98439.40;;;13.60
68027;BMP180;54819;48.030;14.710;2022-10-17T07:24:06;98440.40;;;13.70
68027;BMP180;54819;48.030;14.710;2022-10-17T07:26:33;98441.20;;;13.72
68027;BMP180;54819;48.030;14.710;2022-10-17T07:29:00;98441.80;;;13.80
68027;BMP180;54819;48.030;14.710;2022-10-17T07:31:38;98446.20;;;13.90
68027;BMP180;54819;48.030;14.710;2022-10-17T07:34:06;98444.60;;;13.92
68027;BMP180;54819;48.030;14.710;2022-10-17T07:36:33;98441.80;;;14.00
68027;BMP180;54819;48.030;14.710;2022-10-17T07:39:02;98446.80;;;14.00
68027;BMP180;54819;48.030;14.710;2022-10-17T07:41:30;98442.80;;;14.00
68027;BMP180;54819;48.030;14.710;2022-10-17T07:43:57;98444.00;;;14.10
68027;BMP180;54819;48.030;14.710;2022-10-17T07:46:30;98452.80;;;14.10
68027;BMP180;54819;48.030;14.710;2022-10-17T07:48:58;98446.20;;;14.10
68027;BMP180;54819;48.030;14.710;2022-10-17T07:51:25;98449.60;;;14.18
68027;BMP180;54819;48.030;14.710;2022-10-17T07:53:52;98448.60;;;14.20
68027;BMP180;54819;48.030;14.710;2022-10-17T07:56:19;98444.80;;;14.20
68027;BMP180;54819;48.030;14.710;2022-10-17T07:58:51;98454.20;;;14.30
68027;BMP180;54819;48.030;14.710;2022-10-17T08:01:20;98443.00;;;14.30
68027;BMP180;54819;48.030;14.710;2022-10-17T08:03:47;98450.00;;;14.32
68027;BMP180;54819;48.030;14.710;2022-10-17T08:06:14;98451.80;;;14.40
68027;BMP180;54819;48.030;14.710;2022-10-17T08:08:42;98452.00;;;14.40
68027;BMP180;54819;48.030;14.710;2022-10-17T08:11:12;98445.20;;;14.42
68027;BMP180;54819;48.030;14.710;2022-10-17T08:13:41;98453.40;;;14.50
68027;BMP180;54819;48.030;14.710;2022-10-17T08:16:11;98453.60;;;14.50
68027;BMP180;54819;48.030;14.710;2022-10-17T08:18:40;98450.40;;;14.50
68027;BMP180;54819;48.030;14.710;2022-10-17T08:21:11;98455.00;;;14.50
68027;BMP180;54819;48.030;14.710;2022-10-17T08:23:40;98449.40;;;14.50
68027;BMP180;54819;48.030;14.710;2022-10-17T08:26:09;98449.80;;;14.50
68027;BMP180;54819;48.030;14.710;2022-10-17T08:28:39;98460.60;;;14.50
68027;BMP180;54819;48.030;14.710;2022-10-17T08:31:14;98455.40;;;14.60
68027;BMP180;54819;48.030;14.710;2022-10-17T08:33:41;98458.60;;;14.60
68027;BMP180;54819;48.030;14.710;2022-10-17T08:36:09;98456.60;;;14.60
68027;BMP180;54819;48.030;14.710;2022-10-17T08:38:38;98458.40;;;14.60
68027;BMP180;54819;48.030;14.710;2022-10-17T08:47:32;98453.60;;;14.70
68027;BMP180;54819;48.030;14.710;2022-10-17T08:50:09;98450.20;;;14.80
68027;BMP180;54819;48.030;14.710;2022-10-17T08:52:47;98444.60;;;14.94
68027;BMP180;54819;48.030;14.710;2022-10-17T08:57:57;98451.00;;;15.10
68027;BMP180;54819;48.030;14.710;2022-10-17T09:00:28;98445.40;;;15.14
68027;BMP180;54819;48.030;14.710;2022-10-17T09:05:52;98443.00;;;15.30
68027;BMP180;54819;48.030;14.710;2022-10-17T09:11:43;98442.40;;;15.68
68027;BMP180;54819;48.030;14.710;2022-10-17T09:22:27;98450.40;;;16.26
68027;BMP180;54819;48.030;14.710;2022-10-17T09:25:04;98448.60;;;16.24
68027;BMP180;54819;48.030;14.710;2022-10-17T09:27:43;98455.00;;;16.38
68027;BMP180;54819;48.030;14.710;2022-10-17T09:33:18;98455.80;;;16.50
68027;BMP180;54819;48.030;14.710;2022-10-17T09:36:07;98455.40;;;16.54
68027;BMP180;54819;48.030;14.710;2022-10-17T09:38:47;98457.20;;;16.62
68027;BMP180;54819;48.030;14.710;2022-10-17T09:41:22;98456.20;;;16.60
68027;BMP180;54819;48.030;14.710;2022-10-17T09:44:28;98460.60;;;16.64
68027;BMP180;54819;48.030;14.710;2022-10-17T09:49:47;98447.80;;;16.60
68027;BMP180;54819;48.030;14.710;2022-10-17T09:52:26;98454.60;;;16.60
68027;BMP180;54819;48.030;14.710;2022-10-17T09:55:48;98454.20;;;16.70
68027;BMP180;54819;48.030;14.710;2022-10-17T09:58:15;98451.00;;;17.00
68027;BMP180;54819;48.030;14.710;2022-10-17T10:00:45;98448.40;;;17.10
68027;BMP180;54819;48.030;14.710;2022-10-17T10:03:20;98448.20;;;17.20
68027;BMP180;54819;48.030;14.710;2022-10-17T10:06:02;98455.20;;;17.40
68027;BMP180;54819;48.030;14.710;2022-10-17T10:08:37;98456.20;;;17.68
68027;BMP180;54819;48.030;14.710;2022-10-17T10:11:15;98456.00;;;17.80
68027;BMP180;54819;48.030;14.710;2022-10-17T10:13:47;98455.80;;;17.80
68027;BMP180;54819;48.030;14.710;2022-10-17T10:16:46;98455.20;;;17.80
68027;BMP180;54819;48.030;14.710;2022-10-17T10:19:34;98448.00;;;18.00
68027;BMP180;54819;48.030;14.710;2022-10-17T10:22:29;98446.80;;;18.10
68027;BMP180;54819;48.030;14.710;2022-10-17T10:27:40;98445.20;;;18.30
68027;BMP180;54819;48.030;14.710;2022-10-17T10:30:17;98442.20;;;18.40
68027;BMP180;54819;48.030;14.710;2022-10-17T10:32:47;98444.20;;;18.50
68027;BMP180;54819;48.030;14.710;2022-10-17T10:37:57;98435.20;;;18.62
68027;BMP180;54819;48.030;14.710;2022-10-17T10:40:31;98438.40;;;18.60
68027;BMP180;54819;48.030;14.710;2022-10-17T10:43:00;98445.00;;;18.50
68027;BMP180;54819;48.030;14.710;2022-10-17T10:51:31;98440.20;;;17.90
68027;BMP180;54819;48.030;14.710;2022-10-17T10:54:12;98442.20;;;17.70
68027;BMP180;54819;48.030;14.710;2022-10-17T10:56:59;98441.00;;;17.70
68027;BMP180;54819;48.030;14.710;2022-10-17T10:59:38;98440.20;;;17.60
68027;BMP180;54819;48.030;14.710;2022-10-17T11:07:20;98442.00;;;17.60
68027;BMP180;54819;48.030;14.710;2022-10-17T11:13:11;98447.80;;;17.62
68027;BMP180;54819;48.030;14.710;2022-10-17T11:15:47;98448.80;;;17.60
68027;BMP180;54819;48.030;14.710;2022-10-17T11:18:28;98443.60;;;17.60
68027;BMP180;54819;48.030;14.710;2022-10-17T11:21:15;98444.80;;;17.60
68027;BMP180;54819;48.030;14.710;2022-10-17T11:24:07;98445.20;;;17.50
68027;BMP180;54819;48.030;14.710;2022-10-17T11:26:59;98448.00;;;17.50
68027;BMP180;54819;48.030;14.710;2022-10-17T11:29:33;98445.80;;;17.40
68027;BMP180;54819;48.030;14.710;2022-10-17T11:32:08;98444.40;;;17.42
68027;BMP180;54819;48.030;14.710;2022-10-17T11:34:44;98445.00;;;17.50
68027;BMP180;54819;48.030;14.710;2022-10-17T11:37:19;98444.20;;;17.50
68027;BMP180;54819;48.030;14.710;2022-10-17T11:39:59;98444.20;;;17.50
68027;BMP180;54819;48.030;14.710;2022-10-17T11:42:35;98441.60;;;17.50
68027;BMP180;54819;48.030;14.710;2022-10-17T11:45:16;98430.00;;;17.50
68027;BMP180;54819;48.030;14.710;2022-10-17T11:47:54;98432.40;;;17.46
68027;BMP180;54819;48.030;14.710;2022-10-17T11:50:33;98435.80;;;17.50
68027;BMP180;54819;48.030;14.710;2022-10-17T11:53:30;98434.80;;;17.50
68027;BMP180;54819;48.030;14.710;2022-10-17T11:56:00;98437.00;;;17.60
68027;BMP180;54819;48.030;14.710;2022-10-17T11:58:52;98431.00;;;17.60
68027;BMP180;54819;48.030;14.710;2022-10-17T12:01:57;98427.40;;;17.70
68027;BMP180;54819;48.030;14.710;2022-10-17T12:13:52;98418.80;;;18.20
68027;BMP180;54819;48.030;14.710;2022-10-17T12:24:43;98415.60;;;18.20
68027;BMP180;54819;48.030;14.710;2022-10-17T12:27:42;98409.00;;;18.20
68027;BMP180;54819;48.030;14.710;2022-10-17T12:33:00;98411.40;;;18.10
68027;BMP180;54819;48.030;14.710;2022-10-17T12:35:36;98413.60;;;18.10
68027;BMP180;54819;48.030;14.710;2022-10-17T12:38:20;98410.80;;;18.10
68027;BMP180;54819;48.030;14.710;2022-10-17T12:40:50;98411.00;;;18.10
68027;BMP180;54819;48.030;14.710;2022-10-17T12:45:56;98420.80;;;18.10
68027;BMP180;54819;48.030;14.710;2022-10-17T12:51:18;98420.80;;;18.20
68027;BMP180;54819;48.030;14.710;2022-10-17T12:54:13;98420.20;;;18.20
68027;BMP180;54819;48.030;14.710;2022-10-17T12:56:45;98417.60;;;18.30
68027;BMP180;54819;48.030;14.710;2022-10-17T12:59:20;98429.00;;;18.20
68027;BMP180;54819;48.030;14.710;2022-10-17T13:01:52;98432.20;;;18.20
68027;BMP180;54819;48.030;14.710;2022-10-17T13:04:21;98427.20;;;18.20
68027;BMP180;54819;48.030;14.710;2022-10-17T13:06:55;98426.40;;;18.28
68027;BMP180;54819;48.030;14.710;2022-10-17T13:09:37;98429.20;;;18.30
68027;BMP180;54819;48.030;14.710;2022-10-17T13:12:16;98428.00;;;18.40
68027;BMP180;54819;48.030;14.710;2022-10-17T13:14:46;98424.60;;;18.50
68027;BMP180;54819;48.030;14.710;2022-10-17T13:17:28;98425.40;;;18.50
68027;BMP180;54819;48.030;14.710;2022-10-17T13:19:57;98423.80;;;18.60
68027;BMP180;54819;48.030;14.710;2022-10-17T13:22:30;98419.80;;;18.70
68027;BMP180;54819;48.030;14.710;2022-10-17T13:25:13;98422.40;;;18.70
68027;BMP180;54819;48.030;14.710;2022-10-17T13:27:41;98417.20;;;18.80
68027;BMP180;54819;48.030;14.710;2022-10-17T13:30:34;98412.00;;;18.90
68027;BMP180;54819;48.030;14.710;2022-10-17T13:33:02;98408.20;;;18.90
68027;BMP180;54819;48.030;14.710;2022-10-17T13:35:35;98413.40;;;18.92
68027;BMP180;54819;48.030;14.710;2022-10-17T13:38:29;98414.40;;;19.00
68027;BMP180;54819;48.030;14.710;2022-10-17T13:41:00;98414.20;;;19.08
68027;BMP180;54819;48.030;14.710;2022-10-17T13:43:49;98418.60;;;19.10
68027;BMP180;54819;48.030;14.710;2022-10-17T13:46:34;98415.80;;;19.10
68027;BMP180;54819;48.030;14.710;2022-10-17T13:49:33;98419.80;;;19.20
68027;BMP180;54819;48.030;14.710;2022-10-17T13:52:05;98421.40;;;19.24
68027;BMP180;54819;48.030;14.710;2022-10-17T13:54:40;98416.20;;;19.30
68027;BMP180;54819;48.030;14.710;2022-10-17T13:57:24;98409.40;;;19.30
68027;BMP180;54819;48.030;14.710;2022-10-17T14:00:05;98412.60;;;19.30
68027;BMP180;54819;48.030;14.710;2022-10-17T14:02:40;98413.00;;;19.40
68027;BMP180;54819;48.030;14.710;2022-10-17T14:05:10;98412.00;;;19.40
68027;BMP180;54819;48.030;14.710;2022-10-17T14:07:56;98412.60;;;19.40
68027;BMP180;54819;48.030;14.710;2022-10-17T14:10:41;98415.80;;;19.48
68027;BMP180;54819;48.030;14.710;2022-10-17T14:13:25;98415.20;;;19.48
68027;BMP180;54819;48.030;14.710;2022-10-17T14:15:55;98420.60;;;19.50
68027;BMP180;54819;48.030;14.710;2022-10-17T14:18:28;98420.40;;;19.56
68027;BMP180;54819;48.030;14.710;2022-10-17T14:21:03;98415.80;;;19.60
68027;BMP180;54819;48.030;14.710;2022-10-17T14:24:33;98419.60;;;19.60
68027;BMP180;54819;48.030;14.710;2022-10-17T14:26:59;98425.40;;;19.60
68027;BMP180;54819;48.030;14.710;2022-10-17T14:29:48;98425.00;;;19.60
68027;BMP180;54819;48.030;14.710;2022-10-17T14:32:18;98423.60;;;19.60
68027;BMP180;54819;48.030;14.710;2022-10-17T14:34:51;98424.20;;;19.60
68027;BMP180;54819;48.030;14.710;2022-10-17T14:40:04;98421.20;;;19.60
68027;BMP180;54819;48.030;14.710;2022-10-17T14:42:38;98420.20;;;19.58
68027;BMP180;54819;48.030;14.710;2022-10-17T14:45:11;98418.20;;;19.50
68027;BMP180;54819;48.030;14.710;2022-10-17T14:47:40;98419.00;;;19.50
68027;BMP180;54819;48.030;14.710;2022-10-17T14:52:36;98422.20;;;19.40
68027;BMP180;54819;48.030;14.710;2022-10-17T14:55:24;98424.80;;;19.40
68027;BMP180;54819;48.030;14.710;2022-10-17T14:57:52;98428.60;;;19.40
68027;BMP180;54819;48.030;14.710;2022-10-17T15:00:21;98426.60;;;19.30
68027;BMP180;54819;48.030;14.710;2022-10-17T15:02:51;98426.80;;;19.30
68027;BMP180;54819;48.030;14.710;2022-10-17T15:05:18;98424.40;;;19.22
68027;BMP180;54819;48.030;14.710;2022-10-17T15:07:46;98425.00;;;19.20
68027;BMP180;54819;48.030;14.710;2022-10-17T15:10:34;98425.40;;;19.20
68027;BMP180;54819;48.030;14.710;2022-10-17T15:13:02;98423.40;;;19.14
68027;BMP180;54819;48.030;14.710;2022-10-17T15:15:51;98417.20;;;19.10
68027;BMP180;54819;48.030;14.710;2022-10-17T15:18:18;98417.00;;;19.10
68027;BMP180;54819;48.030;14.710;2022-10-17T15:20:45;98414.80;;;19.00
68027;BMP180;54819;48.030;14.710;2022-10-17T15:23:12;98417.60;;;19.00
68027;BMP180;54819;48.030;14.710;2022-10-17T15:25:39;98421.20;;;18.94
68027;BMP180;54819;48.030;14.710;2022-10-17T15:28:06;98421.00;;;18.90
68027;BMP180;54819;48.030;14.710;2022-10-17T15:30:35;98423.80;;;18.80
68027;BMP180;54819;48.030;14.710;2022-10-17T15:33:02;98424.40;;;18.78
68027;BMP180;54819;48.030;14.710;2022-10-17T15:35:29;98422.00;;;18.70
68027;BMP180;54819;48.030;14.710;2022-10-17T15:37:57;98423.00;;;18.60
68027;BMP180;54819;48.030;14.710;2022-10-17T15:40:28;98427.00;;;18.50
68027;BMP180;54819;48.030;14.710;2022-10-17T15:42:56;98426.00;;;18.50
68027;BMP180;54819;48.030;14.710;2022-10-17T15:45:23;98424.40;;;18.40
68027;BMP180;54819;48.030;14.710;2022-10-17T15:47:54;98426.40;;;18.28
68027;BMP180;54819;48.030;14.710;2022-10-17T15:50:22;98424.60;;;18.20
68027;BMP180;54819;48.030;14.710;2022-10-17T15:52:49;98427.00;;;18.10
68027;BMP180;54819;48.030;14.710;2022-10-17T15:55:18;98422.20;;;18.00
68027;BMP180;54819;48.030;14.710;2022-10-17T15:57:47;98427.20;;;17.94
68027;BMP180;54819;48.030;14.710;2022-10-17T16:00:19;98432.00;;;17.90
68027;BMP180;54819;48.030;14.710;2022-10-17T16:02:48;98434.80;;;17.80
68027;BMP180;54819;48.030;14.710;2022-10-17T16:05:22;98437.40;;;17.70
68027;BMP180;54819;48.030;14.710;2022-10-17T16:07:53;98441.40;;;17.60
68027;BMP180;54819;48.030;14.710;2022-10-17T16:10:21;98444.20;;;17.52
68027;BMP180;54819;48.030;14.710;2022-10-17T16:12:49;98443.80;;;17.50
68027;BMP180;54819;48.030;14.710;2022-10-17T16:15:20;98449.20;;;17.40
68027;BMP180;54819;48.030;14.710;2022-10-17T16:17:54;98453.80;;;17.30
68027;BMP180;54819;48.030;14.710;2022-10-17T16:20:23;98461.60;;;17.20
68027;BMP180;54819;48.030;14.710;2022-10-17T16:22:53;98462.00;;;17.10